Time;durP1;ratioP1;P1;durP2;ratioP2;P2;SDS_P1;SDS_P2;PMS_P1;PMS_P2;Temp;Humidity;BMP_temperature;BMP_pressure;BME280_temperature;BME280_humidity;BME280_pressure;Samples;Min_cycle;Max_cycle;Signal;HPM_P1;HPM_P2
2021/11/24 00:02:20;;;;;;;7.65;5.72;;;;;;;5.36;77.71;101897.19;5083519;28;20065;-53
2021/11/24 00:04:45;;;;;;;6.32;5.53;;;;;;;5.37;76.70;101893.75;5076386;28;20031;-52
2021/11/24 00:07:12;;;;;;;6.70;5.43;;;;;;;5.37;76.97;101896.38;5079117;28;20422;-53
2021/11/24 00:09:37;;;;;;;7.10;5.85;;;;;;;5.37;77.19;101894.63;5078300;28;20036;-52
2021/11/24 00:12:03;;;;;;;6.00;5.18;;;;;;;5.37;77.14;101889.38;5076024;28;20070;-53
2021/11/24 00:14:30;;;;;;;7.45;5.60;;;;;;;5.36;76.85;101889.34;5081505;28;20020;-52
2021/11/24 00:16:55;;;;;;;7.38;5.47;;;;;;;5.38;77.57;101887.66;5076569;28;20181;-53
2021/11/24 00:19:20;;;;;;;7.00;5.43;;;;;;;5.36;77.46;101887.63;5077908;28;20484;-53
2021/11/24 00:21:46;;;;;;;6.82;5.65;;;;;;;5.38;77.52;101890.28;5081761;28;20016;-53
2021/11/24 00:24:11;;;;;;;6.40;5.32;;;;;;;5.37;76.99;101886.78;5084212;28;20066;-53
2021/11/24 00:26:36;;;;;;;6.57;5.53;;;;;;;5.37;76.90;101883.28;5082237;28;20123;-53
2021/11/24 00:29:02;;;;;;;7.00;5.57;;;;;;;5.38;77.19;101890.28;5079500;28;20087;-53
2021/11/24 00:31:28;;;;;;;6.45;5.50;;;;;;;5.37;76.96;101884.16;5059901;28;20028;-53
2021/11/24 00:33:53;;;;;;;6.88;5.43;;;;;;;5.37;77.20;101884.16;5078939;28;20422;-53
2021/11/24 00:36:19;;;;;;;7.22;5.25;;;;;;;5.37;76.75;101886.78;5080980;28;20069;-53
2021/11/24 00:38:44;;;;;;;6.40;5.15;;;;;;;5.38;77.19;101885.06;5083989;28;20023;-53
2021/11/24 00:41:09;;;;;;;5.57;5.07;;;;;;;5.38;77.04;101885.06;5071398;28;20020;-52
2021/11/24 00:43:35;;;;;;;7.28;5.95;;;;;;;5.38;77.11;101885.06;5078676;28;20024;-53
2021/11/24 00:46:00;;;;;;;8.20;5.93;;;;;;;5.37;77.30;101888.50;5075840;28;20028;-53
2021/11/24 00:48:25;;;;;;;7.35;5.75;;;;;;;5.37;76.71;101884.16;5076478;28;20026;-53
2021/11/24 00:50:51;;;;;;;8.45;5.72;;;;;;;5.38;77.31;101885.06;5072302;28;20077;-53
2021/11/24 00:53:16;;;;;;;6.70;5.28;;;;;;;5.38;77.38;101877.19;5068855;28;20036;-53
2021/11/24 00:55:41;;;;;;;6.70;5.35;;;;;;;5.37;77.48;101878.91;5068015;28;20028;-53
2021/11/24 00:58:07;;;;;;;5.85;5.20;;;;;;;5.38;77.44;101874.59;5070214;28;20035;-52
2021/11/24 01:00:32;;;;;;;7.07;5.55;;;;;;;5.38;76.99;101879.81;5070424;28;20024;-52
2021/11/24 01:02:57;;;;;;;7.40;5.90;;;;;;;5.38;77.51;101869.34;5071201;28;20556;-52
2021/11/24 01:05:22;;;;;;;6.28;5.68;;;;;;;5.37;76.98;101867.59;5070505;28;20151;-52
2021/11/24 01:07:48;;;;;;;7.55;5.45;;;;;;;5.39;77.73;101868.50;5070638;28;20070;-52
2021/11/24 01:10:14;;;;;;;5.95;4.60;;;;;;;5.38;77.24;101864.97;5070749;28;20025;-53
2021/11/24 01:12:41;;;;;;;8.35;6.45;;;;;;;5.38;77.29;101857.13;5051916;28;20020;-53
2021/11/24 01:15:08;;;;;;;7.07;5.03;;;;;;;5.39;77.16;101858.03;5070771;28;20095;-53
2021/11/24 01:17:33;;;;;;;8.82;6.05;;;;;;;5.39;77.79;101858.03;5067326;28;20031;-53
2021/11/24 01:19:59;;;;;;;7.10;5.53;;;;;;;5.41;76.40;101860.69;5070972;28;20024;-53
2021/11/24 01:22:24;;;;;;;8.70;6.22;;;;;;;5.37;77.11;101854.50;5051413;28;20025;-52
2021/11/24 01:24:49;;;;;;;8.50;6.50;;;;;;;5.39;77.53;101856.31;5070451;28;20044;-52
2021/11/24 01:27:15;;;;;;;6.75;5.50;;;;;;;5.41;77.29;101858.09;5069795;28;20017;-53
2021/11/24 01:29:40;;;;;;;7.80;5.72;;;;;;;5.39;77.03;101856.31;5069156;28;20058;-53
2021/11/24 01:32:06;;;;;;;6.10;5.25;;;;;;;5.36;77.25;101845.75;5070591;28;20032;-53
2021/11/24 01:34:31;;;;;;;7.28;5.78;;;;;;;5.40;77.58;101851.97;5069780;28;20031;-53
2021/11/24 01:36:56;;;;;;;7.68;6.00;;;;;;;5.39;77.31;101847.56;5070264;28;20032;-53
2021/11/24 01:39:21;;;;;;;7.63;5.35;;;;;;;5.39;77.02;101845.84;5067124;28;20039;-53
2021/11/24 01:41:47;;;;;;;7.13;5.25;;;;;;;5.40;77.18;101851.97;5069272;28;20508;-52
2021/11/24 01:44:28;;;;;;;6.63;5.25;;;;;;;5.40;77.48;101857.19;5068407;28;20041;-53
2021/11/24 01:46:55;;;;;;;7.18;5.13;;;;;;;5.38;77.16;101851.03;5070210;28;20028;-53
2021/11/24 01:49:23;;;;;;;7.22;5.75;;;;;;;5.39;77.28;101855.41;5067468;28;20028;-53
2021/11/24 01:51:49;;;;;;;7.63;6.03;;;;;;;5.40;77.69;101854.56;5070111;28;20029;-54
2021/11/24 01:54:15;;;;;;;8.23;5.55;;;;;;;5.40;77.53;101851.97;5070267;28;20093;-53
2021/11/24 01:56:40;;;;;;;7.85;5.43;;;;;;;5.41;77.03;101848.53;5068617;28;20468;-53
2021/11/24 01:59:08;;;;;;;6.32;5.60;;;;;;;5.40;77.26;101846.72;5070307;28;20099;-53
2021/11/24 02:01:37;;;;;;;7.78;5.38;;;;;;;5.40;78.00;101846.72;5070246;28;20104;-53
2021/11/24 02:04:02;;;;;;;7.28;5.50;;;;;;;5.39;76.96;101845.84;5069811;28;20120;-53
2021/11/24 02:06:28;;;;;;;7.65;5.45;;;;;;;5.39;77.26;101840.63;5070029;28;20442;-53
2021/11/24 02:08:53;;;;;;;8.52;6.30;;;;;;;5.39;77.60;101844.94;5070563;28;20094;-53
2021/11/24 02:11:18;;;;;;;8.45;6.00;;;;;;;5.41;77.20;101837.16;5070481;28;20055;-53
2021/11/24 02:13:45;;;;;;;7.53;5.57;;;;;;;5.40;77.46;101838.88;5069426;28;20025;-53
2021/11/24 02:16:10;;;;;;;7.65;5.75;;;;;;;5.41;77.01;101838.06;5069308;28;20028;-53
2021/11/24 02:18:35;;;;;;;8.75;5.68;;;;;;;5.42;77.43;101838.91;5069481;28;20035;-53
2021/11/24 02:21:01;;;;;;;9.32;5.88;;;;;;;5.41;76.47;101831.94;5069862;28;20043;-52
2021/11/24 02:23:26;;;;;;;7.20;5.95;;;;;;;5.41;76.95;101830.22;5069826;28;20048;-53
2021/11/24 02:25:51;;;;;;;7.40;6.00;;;;;;;5.41;76.96;101824.97;5068035;28;20024;-53
2021/11/24 02:28:17;;;;;;;7.68;5.88;;;;;;;5.40;77.18;101815.31;5069786;28;20029;-53
2021/11/24 02:30:42;;;;;;;10.25;6.40;;;;;;;5.42;77.27;101821.50;5070349;28;20111;-53
2021/11/24 02:33:09;;;;;;;7.22;5.97;;;;;;;5.42;77.08;101808.44;5067949;28;20070;-53
2021/11/24 02:35:34;;;;;;;8.38;6.43;;;;;;;5.41;77.49;101811.88;5067960;28;20418;-53
2021/11/24 02:38:02;;;;;;;9.57;6.68;;;;;;;5.42;76.97;101803.19;5070188;28;20024;-52
2021/11/24 02:40:33;;;;;;;8.95;6.68;;;;;;;5.41;77.46;101796.19;5072158;28;20198;-53
2021/11/24 02:42:58;;;;;;;7.53;5.83;;;;;;;5.42;76.65;101802.28;5074243;28;20020;-53
2021/11/24 02:45:25;;;;;;;8.05;6.32;;;;;;;5.42;76.87;101795.34;5059234;28;20027;-52
2021/11/24 02:47:50;;;;;;;8.77;6.55;;;;;;;5.42;77.30;101807.53;5074128;28;20024;-53
2021/11/24 02:50:15;;;;;;;9.15;6.43;;;;;;;5.41;77.37;101796.19;5076191;28;20028;-53
2021/11/24 02:52:41;;;;;;;9.95;6.90;;;;;;;5.42;77.33;101797.97;5072435;28;20043;-53
2021/11/24 02:55:06;;;;;;;8.20;6.38;;;;;;;5.42;77.23;101797.06;5073092;28;20024;-52
2021/11/24 02:57:39;;;;;;;8.52;6.10;;;;;;;5.42;77.25;101790.09;5074895;28;20386;-53
2021/11/24 03:00:25;;;;;;;10.10;6.57;;;;;;;5.42;77.64;101790.09;5054930;28;20939;-52
2021/11/24 03:02:51;;;;;;;7.20;5.65;;;;;;;5.42;77.36;101794.44;5073498;28;20024;-53
2021/11/24 03:05:19;;;;;;;9.15;6.78;;;;;;;5.43;76.94;101791.88;5074608;28;20028;-54
2021/11/24 03:07:44;;;;;;;9.85;6.70;;;;;;;5.42;77.32;101791.81;5056710;28;20024;-53
2021/11/24 03:10:10;;;;;;;9.48;6.07;;;;;;;5.42;77.27;101787.50;5077179;28;20482;-53
2021/11/24 03:12:35;;;;;;;7.53;6.07;;;;;;;5.42;77.13;101787.50;5074193;28;20031;-53
2021/11/24 03:15:02;;;;;;;7.93;6.45;;;;;;;5.42;77.77;101787.50;5076586;28;20040;-52
2021/11/24 03:17:28;;;;;;;8.30;6.20;;;;;;;5.42;77.59;101782.25;5055754;28;20037;-53
2021/11/24 03:19:53;;;;;;;9.10;6.70;;;;;;;5.44;77.49;101783.19;5074591;28;20376;-53
2021/11/24 03:22:22;;;;;;;7.88;6.00;;;;;;;5.44;77.61;101774.47;5072458;28;20021;-53
2021/11/24 03:24:55;;;;;;;11.40;6.25;;;;;;;5.43;77.39;101776.19;5078335;28;20048;-52
2021/11/24 03:27:32;;;;;;;9.25;6.85;;;;;;;5.42;77.48;101769.19;5075886;28;20025;-52
2021/11/24 03:29:58;;;;;;;10.48;7.40;;;;;;;5.42;77.60;101763.03;5072136;28;20044;-52
2021/11/24 03:32:24;;;;;;;8.60;6.35;;;;;;;5.44;77.05;101770.09;5057027;28;20032;-53
2021/11/24 03:34:50;;;;;;;8.98;6.05;;;;;;;5.44;77.68;101775.31;5077698;28;20043;-52
2021/11/24 03:37:17;;;;;;;9.65;6.28;;;;;;;5.45;76.78;101769.28;5071731;28;20024;-52
2021/11/24 03:39:43;;;;;;;9.43;6.53;;;;;;;5.44;77.38;101772.72;5076291;28;20021;-53
2021/11/24 03:42:08;;;;;;;9.52;7.22;;;;;;;5.42;77.55;101763.94;5058146;28;20372;-52
2021/11/24 03:44:33;;;;;;;8.52;5.88;;;;;;;5.45;77.20;101766.66;5075683;28;20028;-53
2021/11/24 03:46:58;;;;;;;8.10;6.13;;;;;;;5.44;76.92;101758.75;5074664;28;20021;-51
2021/11/24 03:49:24;;;;;;;9.55;6.15;;;;;;;5.42;77.13;101761.31;5072119;28;20155;-53
2021/11/24 03:51:51;;;;;;;9.32;6.03;;;;;;;5.44;77.25;101757.00;5056481;28;20154;-53
2021/11/24 03:54:16;;;;;;;9.38;6.68;;;;;;;5.44;77.12;101754.38;5076100;28;20055;-52
2021/11/24 03:56:41;;;;;;;9.77;6.50;;;;;;;5.45;78.00;101755.28;5070524;28;20055;-52
2021/11/24 03:59:07;;;;;;;9.50;6.68;;;;;;;5.43;77.82;101747.38;5074045;28;20017;-52
2021/11/24 04:01:32;;;;;;;9.40;6.28;;;;;;;5.45;77.17;101745.72;5066871;28;20044;-53
2021/11/24 04:03:57;;;;;;;9.55;6.75;;;;;;;5.45;77.31;101745.72;5073750;28;20031;-52
2021/11/24 04:06:25;;;;;;;8.80;6.55;;;;;;;5.46;76.95;101749.22;5075910;28;20489;-53
2021/11/24 04:08:51;;;;;;;9.73;6.18;;;;;;;5.44;77.53;101743.94;5072104;28;20055;-52
2021/11/24 04:11:16;;;;;;;8.32;7.15;;;;;;;5.45;76.94;101756.19;5071117;28;20127;-53
2021/11/24 04:13:42;;;;;;;7.68;5.97;;;;;;;5.45;77.68;101750.06;5075399;28;20027;-51
2021/11/24 04:16:07;;;;;;;9.82;6.53;;;;;;;5.45;77.54;101750.06;5072027;28;20058;-51
2021/11/24 04:18:32;;;;;;;10.23;6.72;;;;;;;5.45;77.15;101756.19;5072899;28;20025;-51
2021/11/24 04:20:57;;;;;;;9.25;6.43;;;;;;;5.45;77.27;101750.06;5071908;28;20040;-51
2021/11/24 04:23:23;;;;;;;9.38;6.55;;;;;;;5.46;76.74;101751.81;5053351;28;20395;-51
2021/11/24 04:25:48;;;;;;;9.25;6.57;;;;;;;5.44;77.40;101751.78;5072706;28;20032;-51
2021/11/24 04:28:14;;;;;;;8.20;5.88;;;;;;;5.46;77.60;101746.59;5056734;28;20503;-50
2021/11/24 04:30:40;;;;;;;8.30;6.43;;;;;;;5.46;77.45;101750.09;5073371;28;20055;-51
2021/11/24 04:33:05;;;;;;;9.48;6.85;;;;;;;5.45;77.45;101748.34;5074047;28;20024;-51
2021/11/24 04:35:31;;;;;;;8.25;6.10;;;;;;;5.46;77.66;101749.22;5069600;28;20383;-51
2021/11/24 04:37:56;;;;;;;8.95;6.68;;;;;;;5.45;77.10;101750.97;5070796;28;20418;-50
2021/11/24 04:40:22;;;;;;;7.93;5.72;;;;;;;5.46;77.63;101747.50;5070550;28;20174;-51
2021/11/24 04:42:48;;;;;;;8.93;6.63;;;;;;;5.46;77.53;101743.97;5073169;28;20032;-52
2021/11/24 04:45:13;;;;;;;8.88;6.85;;;;;;;5.45;77.54;101739.59;5070706;28;20031;-51
2021/11/24 04:47:39;;;;;;;8.93;6.38;;;;;;;5.46;77.52;101742.25;5070915;28;20016;-50
2021/11/24 04:50:04;;;;;;;9.70;6.68;;;;;;;5.45;77.35;101743.09;5073449;28;20024;-51
2021/11/24 04:52:30;;;;;;;10.65;6.50;;;;;;;5.46;77.71;101749.22;5072009;28;20077;-51
2021/11/24 04:54:55;;;;;;;8.32;5.88;;;;;;;5.46;77.28;101737.03;5070041;28;20535;-51
2021/11/24 04:57:21;;;;;;;9.43;7.05;;;;;;;5.47;77.08;101740.53;5071553;28;20079;-51
2021/11/24 04:59:47;;;;;;;8.10;5.85;;;;;;;5.46;77.20;101730.88;5070401;28;20019;-51
2021/11/24 05:02:12;;;;;;;9.88;6.35;;;;;;;5.47;76.74;101730.06;5069843;28;20036;-51
2021/11/24 05:04:37;;;;;;;10.75;7.57;;;;;;;5.46;77.04;101729.16;5072781;28;20483;-50
2021/11/24 05:07:03;;;;;;;8.02;5.95;;;;;;;5.46;77.26;101741.34;5054985;28;20021;-51
2021/11/24 05:09:28;;;;;;;10.35;6.32;;;;;;;5.46;77.02;101733.50;5071605;28;20035;-52
2021/11/24 05:11:59;;;;;;;9.57;7.10;;;;;;;5.47;77.02;101737.91;5069687;28;20024;-51
2021/11/24 05:14:29;;;;;;;9.57;7.55;;;;;;;5.45;77.47;101736.97;5072930;28;21217;-50
2021/11/24 05:16:55;;;;;;;9.07;6.47;;;;;;;5.47;77.56;101733.56;5071459;28;20115;-52
2021/11/24 05:19:22;;;;;;;8.27;6.55;;;;;;;5.46;77.51;101731.78;5075670;28;20020;-50
2021/11/24 05:21:54;;;;;;;7.35;5.60;;;;;;;5.46;77.28;101737.03;5076310;28;20024;-51
2021/11/24 05:24:21;;;;;;;9.45;7.13;;;;;;;5.46;77.03;101734.41;5072419;28;20032;-51
2021/11/24 05:26:47;;;;;;;9.05;6.22;;;;;;;5.46;77.47;101733.50;5075894;28;20020;-51
2021/11/24 05:29:13;;;;;;;8.90;6.15;;;;;;;5.47;77.07;101736.16;5072245;28;20024;-51
2021/11/24 05:31:38;;;;;;;8.63;6.25;;;;;;;5.47;77.71;101741.41;5070081;28;20440;-52
2021/11/24 05:34:04;;;;;;;9.77;6.72;;;;;;;5.46;77.30;101731.78;5068103;28;20023;-51
2021/11/24 05:36:30;;;;;;;9.40;7.05;;;;;;;5.46;77.67;101731.78;5067568;28;20027;-52
2021/11/24 05:38:55;;;;;;;11.00;7.18;;;;;;;5.46;77.54;101731.78;5068349;28;20063;-51
2021/11/24 05:41:20;;;;;;;10.43;7.10;;;;;;;5.47;77.74;101738.78;5069377;28;20357;-51
2021/11/24 05:43:46;;;;;;;9.52;6.53;;;;;;;5.46;77.33;101734.41;5068204;28;20021;-52
2021/11/24 05:46:14;;;;;;;9.90;6.82;;;;;;;5.47;77.89;101733.56;5072193;28;20028;-51
2021/11/24 05:48:40;;;;;;;8.88;6.15;;;;;;;5.46;76.99;101731.78;5074011;28;20419;-51
2021/11/24 05:51:07;;;;;;;10.23;6.60;;;;;;;5.47;77.29;101733.56;5052140;28;20039;-51
2021/11/24 05:53:33;;;;;;;11.13;7.45;;;;;;;5.46;77.46;101729.16;5059861;28;20476;-50
2021/11/24 05:55:58;;;;;;;10.20;7.07;;;;;;;5.45;77.44;101732.63;5053793;28;20082;-51
2021/11/24 05:58:25;;;;;;;7.65;6.50;;;;;;;5.48;77.84;101730.13;5071181;28;20465;-51
2021/11/24 06:00:50;;;;;;;10.20;7.18;;;;;;;5.48;77.54;101729.22;5070672;28;20020;-50
2021/11/24 06:03:15;;;;;;;9.02;6.80;;;;;;;5.49;77.24;101726.66;5071203;28;20032;-51
2021/11/24 06:05:41;;;;;;;10.98;7.20;;;;;;;5.48;77.34;101723.97;5068483;28;20054;-50
2021/11/24 06:08:06;;;;;;;11.13;7.28;;;;;;;5.47;77.54;101720.47;5074886;28;20500;-51
2021/11/24 06:10:35;;;;;;;9.90;6.95;;;;;;;5.47;77.64;101728.31;5071692;28;20078;-51
2021/11/24 06:13:00;;;;;;;12.73;7.45;;;;;;;5.48;77.69;101729.22;5069592;28;20052;-52
2021/11/24 06:15:25;;;;;;;12.82;6.95;;;;;;;5.49;78.11;101730.97;5075484;28;20048;-51
2021/11/24 06:17:51;;;;;;;9.50;6.20;;;;;;;5.48;77.42;101723.97;5079404;28;20020;-50
2021/11/24 06:20:17;;;;;;;10.23;6.78;;;;;;;5.48;77.26;101721.38;5075319;28;20039;-51
2021/11/24 06:22:44;;;;;;;9.23;7.00;;;;;;;5.49;77.44;101721.41;5074766;28;20118;-51
2021/11/24 06:25:10;;;;;;;8.60;6.63;;;;;;;5.48;77.91;101719.66;5078548;28;20029;-51
2021/11/24 06:27:35;;;;;;;11.75;7.75;;;;;;;5.48;77.66;101714.41;5073438;28;20073;-50
2021/11/24 06:30:01;;;;;;;10.32;7.47;;;;;;;5.49;77.24;101712.66;5072576;28;21491;-50
2021/11/24 06:32:26;;;;;;;10.90;7.32;;;;;;;5.49;77.50;101715.28;5071580;28;20095;-50
2021/11/24 06:34:51;;;;;;;10.40;6.65;;;;;;;5.48;77.97;101713.53;5068944;28;20031;-51
2021/11/24 06:37:17;;;;;;;13.20;6.72;;;;;;;5.48;77.41;101711.81;5074858;28;20553;-50
2021/11/24 06:39:42;;;;;;;9.77;6.60;;;;;;;5.48;77.53;101713.53;5057187;28;20065;-50
2021/11/24 06:42:07;;;;;;;10.15;7.15;;;;;;;5.47;77.03;101704.78;5076589;28;20502;-51
2021/11/24 06:44:33;;;;;;;10.48;6.95;;;;;;;5.48;76.95;101711.81;5074647;28;20391;-51
2021/11/24 06:46:58;;;;;;;10.52;6.95;;;;;;;5.50;77.32;101711.81;5075035;28;20028;-51
2021/11/24 06:49:23;;;;;;;10.57;7.32;;;;;;;5.50;76.86;101706.59;5077117;28;20076;-51
2021/11/24 06:51:49;;;;;;;8.55;6.63;;;;;;;5.49;77.25;101710.94;5078578;28;20037;-51
2021/11/24 06:54:17;;;;;;;8.57;6.47;;;;;;;5.48;77.72;101717.03;5072826;28;20032;-51
2021/11/24 06:56:44;;;;;;;10.90;7.22;;;;;;;5.49;77.58;101715.28;5075682;28;20083;-51
2021/11/24 06:59:09;;;;;;;9.85;6.90;;;;;;;5.50;77.30;101711.81;5078330;28;20517;-50
2021/11/24 07:01:35;;;;;;;9.40;6.95;;;;;;;5.48;77.23;101708.28;5075923;28;20074;-50
2021/11/24 07:04:01;;;;;;;9.40;6.97;;;;;;;5.49;77.19;101718.81;5062571;28;20028;-51
2021/11/24 07:06:27;;;;;;;10.55;6.93;;;;;;;5.50;77.19;101722.28;5076868;28;20032;-51
2021/11/24 07:08:52;;;;;;;9.63;6.75;;;;;;;5.49;77.75;101717.91;5073657;28;20028;-50
2021/11/24 07:11:18;;;;;;;8.05;6.45;;;;;;;5.50;77.61;101719.66;5072173;28;20411;-51
2021/11/24 07:13:43;;;;;;;8.80;6.43;;;;;;;5.49;77.38;101724.03;5074645;28;20032;-50
2021/11/24 07:16:08;;;;;;;8.15;6.45;;;;;;;5.49;77.87;101716.19;5080285;28;20103;-51
2021/11/24 07:18:33;;;;;;;10.88;7.13;;;;;;;5.49;77.24;101720.50;5079302;28;20081;-50
2021/11/24 07:20:59;;;;;;;10.65;7.40;;;;;;;5.48;77.38;101719.66;5084122;28;20048;-51
2021/11/24 07:23:24;;;;;;;9.48;6.80;;;;;;;5.50;77.31;101722.28;5080542;28;20077;-51
2021/11/24 07:25:50;;;;;;;10.68;6.78;;;;;;;5.48;77.61;101717.03;5077588;28;20017;-50
2021/11/24 07:28:15;;;;;;;10.13;6.50;;;;;;;5.49;76.99;101725.75;5083751;28;20406;-51
2021/11/24 07:30:41;;;;;;;8.18;6.13;;;;;;;5.49;77.35;101720.50;5080043;28;20024;-50
2021/11/24 07:33:07;;;;;;;8.80;6.57;;;;;;;5.49;77.30;101713.56;5074111;28;20016;-51
2021/11/24 07:35:32;;;;;;;9.27;6.30;;;;;;;5.50;77.36;101723.19;5079589;28;20098;-50
2021/11/24 07:37:58;;;;;;;9.20;6.53;;;;;;;5.49;77.43;101713.56;5077004;28;20111;-51
2021/11/24 07:40:24;;;;;;;9.45;6.65;;;;;;;5.49;77.24;101716.19;5074605;28;20027;-51
2021/11/24 07:42:50;;;;;;;7.72;6.15;;;;;;;5.50;77.60;101717.03;5073731;28;20036;-51
2021/11/24 07:45:16;;;;;;;10.15;7.15;;;;;;;5.50;77.33;101714.44;5076628;28;20078;-51
2021/11/24 07:47:42;;;;;;;9.68;6.53;;;;;;;5.50;77.43;101712.72;5074282;28;20021;-51
2021/11/24 07:50:07;;;;;;;9.40;6.43;;;;;;;5.50;77.72;101717.03;5056631;28;20090;-51
2021/11/24 07:52:33;;;;;;;9.65;6.55;;;;;;;5.49;77.86;101713.56;5079600;28;20531;-50
2021/11/24 07:54:58;;;;;;;10.88;7.07;;;;;;;5.50;77.54;101707.47;5081962;28;20024;-51
2021/11/24 07:57:24;;;;;;;11.50;7.18;;;;;;;5.50;77.31;101706.59;5081616;28;20104;-51
2021/11/24 07:59:50;;;;;;;9.75;6.50;;;;;;;5.51;77.38;101714.47;5079697;28;20033;-51
2021/11/24 08:02:16;;;;;;;11.30;7.57;;;;;;;5.51;77.51;101714.47;5072324;28;20046;-51
2021/11/24 08:04:41;;;;;;;10.00;6.43;;;;;;;5.49;77.46;101708.34;5075242;28;20608;-51
2021/11/24 08:07:07;;;;;;;8.85;6.97;;;;;;;5.50;77.34;101704.88;5072931;28;20032;-51
2021/11/24 08:09:32;;;;;;;10.07;6.78;;;;;;;5.51;77.81;101708.38;5067351;28;20032;-52
2021/11/24 08:11:58;;;;;;;7.97;6.30;;;;;;;5.51;77.48;101708.38;5071957;28;20204;-53
2021/11/24 08:14:26;;;;;;;12.23;6.53;;;;;;;5.51;77.75;101709.25;5073495;28;20386;-51
2021/11/24 08:16:51;;;;;;;9.05;6.20;;;;;;;5.50;78.02;101702.25;5069851;28;20036;-51
2021/11/24 08:19:17;;;;;;;9.68;6.80;;;;;;;5.52;77.52;101697.06;5074560;28;20032;-51
2021/11/24 08:21:42;;;;;;;8.48;6.13;;;;;;;5.52;77.21;101694.44;5067824;28;20494;-51
2021/11/24 08:24:07;;;;;;;9.38;7.25;;;;;;;5.52;77.11;101689.22;5059781;28;20674;-50
2021/11/24 08:26:33;;;;;;;10.30;6.72;;;;;;;5.50;77.92;101689.16;5082310;28;20076;-51
2021/11/24 08:28:58;;;;;;;10.10;7.88;;;;;;;5.51;77.47;101693.53;5074996;28;20110;-50
2021/11/24 08:31:24;;;;;;;9.35;6.60;;;;;;;5.51;77.34;101683.06;5056547;28;20036;-54
2021/11/24 08:33:50;;;;;;;9.35;6.47;;;;;;;5.52;77.74;101682.25;5056474;28;20111;-50
2021/11/24 08:36:15;;;;;;;10.30;7.45;;;;;;;5.54;77.01;101686.63;5061691;28;20067;-50
2021/11/24 08:39:01;;;;;;;9.82;6.80;;;;;;;5.51;77.82;101675.22;5074369;28;20059;-51
2021/11/24 08:41:30;;;;;;;11.07;7.25;;;;;;;5.52;77.98;101676.13;5076818;28;20064;-50
2021/11/24 08:43:55;;;;;;;10.23;6.80;;;;;;;5.51;77.76;101675.22;5059553;28;20017;-50
2021/11/24 08:46:21;;;;;;;9.98;6.82;;;;;;;5.52;77.54;101674.41;5072951;28;20037;-50
2021/11/24 08:48:46;;;;;;;10.57;6.53;;;;;;;5.53;76.87;101675.28;5082500;22;20060;-52
2021/11/24 08:51:11;;;;;;;10.40;7.07;;;;;;;5.51;77.85;101669.13;5071200;28;20046;-52
2021/11/24 08:53:37;;;;;;;9.77;6.82;;;;;;;5.52;77.67;101674.41;5068995;28;20095;-51
2021/11/24 08:56:02;;;;;;;11.73;7.00;;;;;;;5.52;76.88;101681.34;5052162;28;20025;-52
2021/11/24 08:58:27;;;;;;;9.27;6.53;;;;;;;5.50;77.89;101660.38;5051657;28;20028;-52
2021/11/24 09:00:53;;;;;;;10.32;6.95;;;;;;;5.52;77.47;101663.94;5054080;28;20056;-52
2021/11/24 09:03:20;;;;;;;12.13;7.72;;;;;;;5.52;77.85;101669.16;5052420;28;20064;-48
2021/11/24 09:05:46;;;;;;;11.52;7.28;;;;;;;5.52;77.94;101665.66;5068509;28;20028;-51
2021/11/24 09:08:11;;;;;;;9.77;6.80;;;;;;;5.52;77.63;101666.56;5069074;28;20621;-49
2021/11/24 09:10:38;;;;;;;10.55;7.68;;;;;;;5.53;77.51;101664.81;5070392;28;20468;-50
2021/11/24 09:13:04;;;;;;;10.52;7.38;;;;;;;5.54;77.63;101666.59;5052582;28;20024;-53
2021/11/24 09:15:29;;;;;;;13.25;8.30;;;;;;;5.52;77.42;101655.19;5050953;28;20089;-49
2021/11/24 09:17:54;;;;;;;12.80;7.63;;;;;;;5.54;77.60;101657.84;5069902;28;20081;-51
2021/11/24 09:20:20;;;;;;;12.60;7.88;;;;;;;5.52;77.59;101650.84;5068693;28;20025;-53
2021/11/24 09:22:47;;;;;;;12.98;8.05;;;;;;;5.52;78.27;101661.31;5065880;28;20032;-51
2021/11/24 09:25:17;;;;;;;11.75;7.05;;;;;;;5.52;77.53;101663.94;5069762;28;20432;-49
2021/11/24 09:28:08;;;;;;;14.70;8.70;;;;;;;5.53;77.54;101659.56;5067888;28;20023;-48
2021/11/24 09:30:34;;;;;;;11.38;7.75;;;;;;;5.52;78.25;101648.25;5068786;28;20064;-51
2021/11/24 09:33:00;;;;;;;12.35;7.07;;;;;;;5.53;77.76;101649.09;5068640;28;20614;-51
2021/11/24 09:35:25;;;;;;;11.57;7.82;;;;;;;5.54;77.37;101650.00;5070639;28;20016;-51
2021/11/24 09:37:50;;;;;;;14.13;8.10;;;;;;;5.54;77.88;101645.66;5067127;28;20111;-52
2021/11/24 09:40:16;;;;;;;11.05;7.65;;;;;;;5.54;77.34;101640.44;5070089;28;20028;-51
2021/11/24 09:42:45;;;;;;;12.10;7.22;;;;;;;5.52;77.85;101637.78;5066789;28;20127;-49
2021/11/24 09:45:11;;;;;;;11.45;7.43;;;;;;;5.54;77.73;101644.75;5067600;28;20495;-51
2021/11/24 09:47:37;;;;;;;13.75;8.38;;;;;;;5.55;77.34;101641.28;5069039;28;20058;-52
2021/11/24 09:50:05;;;;;;;10.65;6.90;;;;;;;5.55;77.68;101638.69;5070062;28;20012;-47
2021/11/24 09:52:33;;;;;;;12.88;7.53;;;;;;;5.56;77.47;101643.06;5067724;28;20033;-50
2021/11/24 09:54:58;;;;;;;10.93;7.60;;;;;;;5.56;77.57;101632.59;5069488;28;20087;-51
2021/11/24 09:57:25;;;;;;;11.60;7.22;;;;;;;5.56;78.06;101627.34;5068792;28;20500;-50
2021/11/24 09:59:51;;;;;;;13.20;7.38;;;;;;;5.55;77.62;101630.81;5068240;28;20380;-50
2021/11/24 10:02:18;;;;;;;11.98;7.45;;;;;;;5.55;78.12;101622.97;5069408;28;20392;-51
2021/11/24 10:04:44;;;;;;;13.55;8.23;;;;;;;5.56;78.03;101627.34;5052657;28;20086;-51
2021/11/24 10:07:11;;;;;;;12.32;7.68;;;;;;;5.57;77.84;101623.91;5067322;28;20033;-51
2021/11/24 10:09:38;;;;;;;12.20;8.77;;;;;;;5.56;77.85;101615.16;5052530;28;20060;-50
2021/11/24 10:12:04;;;;;;;12.90;8.35;;;;;;;5.57;78.22;101618.69;5050974;28;20059;-50
2021/11/24 10:14:29;;;;;;;13.13;8.07;;;;;;;5.55;77.90;101609.91;5067000;28;20068;-57
2021/11/24 10:17:10;;;;;;;12.80;7.80;;;;;;;5.56;78.07;101611.66;5050175;28;20512;-50
2021/11/24 10:19:35;;;;;;;12.07;8.43;;;;;;;5.56;78.12;101606.41;5069293;28;20025;-50
2021/11/24 10:22:11;;;;;;;12.70;7.38;;;;;;;5.56;78.16;101601.19;5048920;28;20024;-52
2021/11/24 10:24:40;;;;;;;13.43;8.15;;;;;;;5.56;77.79;101594.22;5054459;28;20016;-51
2021/11/24 10:27:13;;;;;;;12.55;7.35;;;;;;;5.57;78.39;101582.91;5069554;28;20029;-51
2021/11/24 10:29:40;;;;;;;12.77;7.85;;;;;;;5.57;77.97;101584.66;5068639;28;20032;-52
2021/11/24 10:32:08;;;;;;;11.23;7.43;;;;;;;5.58;77.95;101583.81;5050758;28;20031;-49
2021/11/24 10:34:38;;;;;;;12.75;8.07;;;;;;;5.58;77.13;101582.09;5051299;28;20456;-50
2021/11/24 10:37:09;;;;;;;11.80;7.50;;;;;;;5.58;77.65;101574.25;5068608;22;20111;-50
2021/11/24 10:39:51;;;;;;;12.43;7.47;;;;;;;5.58;78.38;101573.34;5062400;28;20042;-51
2021/11/24 10:42:22;;;;;;;11.95;7.75;;;;;;;5.59;78.18;101565.53;5032909;28;20037;-52
2021/11/24 10:44:48;;;;;;;;;;;;;;;5.59;77.76;101567.25;5048520;28;20039;-50
2021/11/24 10:47:14;;;;;;;14.30;8.00;;;;;;;5.57;77.89;101558.50;5047690;28;19923;-52
2021/11/24 10:49:51;;;;;;;14.18;8.38;;;;;;;5.56;78.03;101556.69;5048417;28;20029;-49
2021/11/24 10:52:24;;;;;;;13.90;8.63;;;;;;;5.58;78.34;101562.88;5045652;28;20025;-53
2021/11/24 10:55:05;;;;;;;13.13;8.40;;;;;;;5.57;78.40;101558.50;5047327;28;20036;-52
2021/11/24 10:57:32;;;;;;;15.77;9.20;;;;;;;5.57;78.36;101551.50;5046766;28;20020;-50
2021/11/24 11:00:16;;;;;;;14.07;8.73;;;;;;;5.59;78.52;101556.78;5046976;28;20606;-50
2021/11/24 11:02:48;;;;;;;12.73;8.23;;;;;;;5.59;78.65;101555.06;5051144;28;20029;-51
2021/11/24 11:05:15;;;;;;;16.10;8.95;;;;;;;5.60;78.06;101550.72;5048986;28;20067;-53
2021/11/24 11:07:54;;;;;;;15.30;8.05;;;;;;;5.58;77.96;101545.44;5048792;28;20021;-51
2021/11/24 11:10:39;;;;;;;12.15;8.35;;;;;;;5.61;78.12;101542.03;5049406;28;20029;-51
2021/11/24 11:13:06;;;;;;;15.35;9.57;;;;;;;5.60;78.10;101540.25;5046434;28;20121;-51
2021/11/24 11:15:36;;;;;;;15.35;8.13;;;;;;;5.61;78.41;101534.16;5028597;28;20100;-50
2021/11/24 11:18:08;;;;;;;15.25;9.38;;;;;;;5.62;77.95;101533.31;5047984;28;20018;-50
2021/11/24 11:20:52;;;;;;;16.25;7.97;;;;;;;5.62;78.02;101528.06;5050955;28;20481;-49
2021/11/24 11:23:28;;;;;;;15.00;8.00;;;;;;;5.62;78.27;101530.69;5049417;28;20494;-50
2021/11/24 11:25:57;;;;;;;13.77;8.23;;;;;;;5.63;78.22;101522.00;5048163;28;20025;-53
2021/11/24 11:28:26;;;;;;;14.60;7.82;;;;;;;5.62;78.12;101528.97;5049179;28;20040;-53
2021/11/24 11:30:53;;;;;;;12.52;7.95;;;;;;;5.62;78.59;101512.38;5033910;28;20033;-50